sensor_id;sensor_type;location;lat;lon;timestamp;temperature;humidity
21115;DHT22;10715;48.546;9.896;2023-12-29T00:01:56;5.90;99.90
21115;DHT22;10715;48.546;9.896;2023-12-29T00:04:22;5.80;99.90
21115;DHT22;10715;48.546;9.896;2023-12-29T00:06:47;5.80;99.90
21115;DHT22;10715;48.546;9.896;2023-12-29T00:09:16;5.80;99.90
21115;DHT22;10715;48.546;9.896;2023-12-29T00:11:49;5.80;99.90
21115;DHT22;10715;48.546;9.896;2023-12-29T00:14:15;5.80;99.90
21115;DHT22;10715;48.546;9.896;2023-12-29T00:16:41;5.70;99.90
21115;DHT22;10715;48.546;9.896;2023-12-29T00:19:07;5.70;99.90
21115;DHT22;10715;48.546;9.896;2023-12-29T00:21:32;5.70;99.90
21115;DHT22;10715;48.546;9.896;2023-12-29T00:23:58;5.70;99.90
21115;DHT22;10715;48.546;9.896;2023-12-29T00:26:24;5.70;99.90
21115;DHT22;10715;48.546;9.896;2023-12-29T00:28:50;5.70;99.90
21115;DHT22;10715;48.546;9.896;2023-12-29T00:31:16;5.70;99.90
21115;DHT22;10715;48.546;9.896;2023-12-29T00:33:45;5.60;99.90
21115;DHT22;10715;48.546;9.896;2023-12-29T00:36:15;5.60;99.90
21115;DHT22;10715;48.546;9.896;2023-12-29T00:38:41;5.70;99.90
21115;DHT22;10715;48.546;9.896;2023-12-29T00:41:07;5.70;99.90
21115;DHT22;10715;48.546;9.896;2023-12-29T00:43:33;5.60;99.90
21115;DHT22;10715;48.546;9.896;2023-12-29T00:46:04;5.70;99.90
21115;DHT22;10715;48.546;9.896;2023-12-29T00:48:33;5.60;99.90
21115;DHT22;10715;48.546;9.896;2023-12-29T00:51:00;5.70;99.90
21115;DHT22;10715;48.546;9.896;2023-12-29T00:53:27;5.60;99.90
21115;DHT22;10715;48.546;9.896;2023-12-29T00:55:52;5.60;99.90
21115;DHT22;10715;48.546;9.896;2023-12-29T00:58:18;5.60;99.90
21115;DHT22;10715;48.546;9.896;2023-12-29T01:00:44;5.60;99.90
21115;DHT22;10715;48.546;9.896;2023-12-29T01:03:09;5.70;99.90
21115;DHT22;10715;48.546;9.896;2023-12-29T01:05:35;5.60;99.90
21115;DHT22;10715;48.546;9.896;2023-12-29T01:08:01;5.60;99.90
21115;DHT22;10715;48.546;9.896;2023-12-29T01:10:27;5.60;99.90
21115;DHT22;10715;48.546;9.896;2023-12-29T01:12:52;5.70;99.90
21115;DHT22;10715;48.546;9.896;2023-12-29T01:15:18;5.60;99.90
21115;DHT22;10715;48.546;9.896;2023-12-29T01:17:44;5.60;99.90
21115;DHT22;10715;48.546;9.896;2023-12-29T01:20:10;5.60;99.90
21115;DHT22;10715;48.546;9.896;2023-12-29T01:22:35;5.60;99.90
21115;DHT22;10715;48.546;9.896;2023-12-29T01:25:01;5.60;99.90
21115;DHT22;10715;48.546;9.896;2023-12-29T01:27:27;5.60;99.90
21115;DHT22;10715;48.546;9.896;2023-12-29T01:29:53;5.60;99.90
21115;DHT22;10715;48.546;9.896;2023-12-29T01:32:22;5.60;99.90
21115;DHT22;10715;48.546;9.896;2023-12-29T01:34:48;5.60;99.90
21115;DHT22;10715;48.546;9.896;2023-12-29T01:37:15;5.60;99.90
21115;DHT22;10715;48.546;9.896;2023-12-29T01:39:42;5.60;99.90
21115;DHT22;10715;48.546;9.896;2023-12-29T01:42:08;5.60;99.90
21115;DHT22;10715;48.546;9.896;2023-12-29T01:44:33;5.50;99.90
21115;DHT22;10715;48.546;9.896;2023-12-29T01:47:00;5.50;99.90
21115;DHT22;10715;48.546;9.896;2023-12-29T01:49:29;5.50;99.90
21115;DHT22;10715;48.546;9.896;2023-12-29T01:51:57;5.50;99.90
21115;DHT22;10715;48.546;9.896;2023-12-29T01:54:27;5.50;99.90
21115;DHT22;10715;48.546;9.896;2023-12-29T01:56:55;5.40;99.90
21115;DHT22;10715;48.546;9.896;2023-12-29T01:59:24;5.40;99.90
21115;DHT22;10715;48.546;9.896;2023-12-29T02:01:54;5.40;99.90
21115;DHT22;10715;48.546;9.896;2023-12-29T02:04:24;5.40;99.90
21115;DHT22;10715;48.546;9.896;2023-12-29T02:06:51;5.40;99.90
21115;DHT22;10715;48.546;9.896;2023-12-29T02:09:17;5.40;99.90
21115;DHT22;10715;48.546;9.896;2023-12-29T02:11:44;5.40;99.90
21115;DHT22;10715;48.546;9.896;2023-12-29T02:14:10;5.30;99.90
21115;DHT22;10715;48.546;9.896;2023-12-29T02:22:06;5.30;99.90
21115;DHT22;10715;48.546;9.896;2023-12-29T02:24:34;5.20;99.90
21115;DHT22;10715;48.546;9.896;2023-12-29T02:27:18;5.20;99.90
21115;DHT22;10715;48.546;9.896;2023-12-29T02:32:23;5.00;99.90
21115;DHT22;10715;48.546;9.896;2023-12-29T02:34:51;5.00;99.90
21115;DHT22;10715;48.546;9.896;2023-12-29T02:37:19;5.00;99.90
21115;DHT22;10715;48.546;9.896;2023-12-29T02:39:44;4.90;99.90
21115;DHT22;10715;48.546;9.896;2023-12-29T02:42:10;4.90;99.90
21115;DHT22;10715;48.546;9.896;2023-12-29T02:44:36;4.80;99.90
21115;DHT22;10715;48.546;9.896;2023-12-29T02:47:02;4.80;99.90
21115;DHT22;10715;48.546;9.896;2023-12-29T02:49:29;4.70;99.90
21115;DHT22;10715;48.546;9.896;2023-12-29T02:51:55;4.60;99.90
21115;DHT22;10715;48.546;9.896;2023-12-29T02:54:21;4.50;99.90
21115;DHT22;10715;48.546;9.896;2023-12-29T02:56:46;4.50;99.90
21115;DHT22;10715;48.546;9.896;2023-12-29T02:59:12;4.40;99.90
21115;DHT22;10715;48.546;9.896;2023-12-29T03:01:38;4.40;99.90
21115;DHT22;10715;48.546;9.896;2023-12-29T03:04:04;4.40;99.90
21115;DHT22;10715;48.546;9.896;2023-12-29T03:06:30;4.40;99.90
21115;DHT22;10715;48.546;9.896;2023-12-29T03:08:55;4.40;99.90
21115;DHT22;10715;48.546;9.896;2023-12-29T03:11:21;4.40;99.90
21115;DHT22;10715;48.546;9.896;2023-12-29T03:13:47;4.50;99.90
21115;DHT22;10715;48.546;9.896;2023-12-29T03:16:12;4.60;99.90
21115;DHT22;10715;48.546;9.896;2023-12-29T03:18:38;4.60;99.90
21115;DHT22;10715;48.546;9.896;2023-12-29T03:21:06;4.60;99.90
21115;DHT22;10715;48.546;9.896;2023-12-29T03:23:33;4.70;99.90
21115;DHT22;10715;48.546;9.896;2023-12-29T03:25:59;4.80;99.90
21115;DHT22;10715;48.546;9.896;2023-12-29T03:28:25;4.80;99.90
21115;DHT22;10715;48.546;9.896;2023-12-29T03:30:50;4.90;99.90
21115;DHT22;10715;48.546;9.896;2023-12-29T03:33:16;4.90;99.90
21115;DHT22;10715;48.546;9.896;2023-12-29T03:35:42;4.90;99.90
21115;DHT22;10715;48.546;9.896;2023-12-29T03:38:08;4.90;99.90
21115;DHT22;10715;48.546;9.896;2023-12-29T03:40:33;5.00;99.90
21115;DHT22;10715;48.546;9.896;2023-12-29T03:42:59;5.00;99.90
21115;DHT22;10715;48.546;9.896;2023-12-29T03:45:25;5.00;99.90
21115;DHT22;10715;48.546;9.896;2023-12-29T03:47:52;5.10;99.90
21115;DHT22;10715;48.546;9.896;2023-12-29T03:50:18;5.10;99.90
21115;DHT22;10715;48.546;9.896;2023-12-29T03:52:43;5.10;99.90
21115;DHT22;10715;48.546;9.896;2023-12-29T03:55:09;5.10;99.90
21115;DHT22;10715;48.546;9.896;2023-12-29T03:57:36;5.20;99.90
21115;DHT22;10715;48.546;9.896;2023-12-29T04:00:02;5.20;99.90
21115;DHT22;10715;48.546;9.896;2023-12-29T04:02:28;5.20;99.90
21115;DHT22;10715;48.546;9.896;2023-12-29T04:04:54;5.30;99.90
21115;DHT22;10715;48.546;9.896;2023-12-29T04:07:19;5.30;99.90
21115;DHT22;10715;48.546;9.896;2023-12-29T04:09:45;5.30;99.90
21115;DHT22;10715;48.546;9.896;2023-12-29T04:12:11;5.40;99.90
21115;DHT22;10715;48.546;9.896;2023-12-29T04:14:36;5.40;99.90
21115;DHT22;10715;48.546;9.896;2023-12-29T04:17:02;5.40;99.90
21115;DHT22;10715;48.546;9.896;2023-12-29T04:19:29;5.40;99.90
21115;DHT22;10715;48.546;9.896;2023-12-29T04:21:54;5.50;99.90
21115;DHT22;10715;48.546;9.896;2023-12-29T04:24:20;5.50;99.90
21115;DHT22;10715;48.546;9.896;2023-12-29T04:26:46;5.50;99.90
21115;DHT22;10715;48.546;9.896;2023-12-29T04:29:11;5.50;99.90
21115;DHT22;10715;48.546;9.896;2023-12-29T04:31:37;5.60;99.90
21115;DHT22;10715;48.546;9.896;2023-12-29T04:34:03;5.60;99.90
21115;DHT22;10715;48.546;9.896;2023-12-29T04:36:28;5.60;99.90
21115;DHT22;10715;48.546;9.896;2023-12-29T04:38:54;5.60;99.90
21115;DHT22;10715;48.546;9.896;2023-12-29T04:41:20;5.60;99.90
21115;DHT22;10715;48.546;9.896;2023-12-29T04:43:46;5.60;99.90
21115;DHT22;10715;48.546;9.896;2023-12-29T04:46:12;5.60;99.90
21115;DHT22;10715;48.546;9.896;2023-12-29T04:48:37;5.60;99.90
21115;DHT22;10715;48.546;9.896;2023-12-29T04:51:03;5.50;99.90
21115;DHT22;10715;48.546;9.896;2023-12-29T04:53:29;5.50;99.90
21115;DHT22;10715;48.546;9.896;2023-12-29T04:55:55;5.40;99.90
21115;DHT22;10715;48.546;9.896;2023-12-29T04:58:21;5.40;99.90
21115;DHT22;10715;48.546;9.896;2023-12-29T05:00:46;5.40;99.90
21115;DHT22;10715;48.546;9.896;2023-12-29T05:03:12;5.30;99.90
21115;DHT22;10715;48.546;9.896;2023-12-29T05:05:38;5.30;99.90
21115;DHT22;10715;48.546;9.896;2023-12-29T05:08:04;5.30;99.90
21115;DHT22;10715;48.546;9.896;2023-12-29T05:10:29;5.30;99.90
21115;DHT22;10715;48.546;9.896;2023-12-29T05:12:55;5.30;99.90
21115;DHT22;10715;48.546;9.896;2023-12-29T05:15:21;5.20;99.90
21115;DHT22;10715;48.546;9.896;2023-12-29T05:17:47;5.20;99.90
21115;DHT22;10715;48.546;9.896;2023-12-29T05:20:12;5.20;99.90
21115;DHT22;10715;48.546;9.896;2023-12-29T05:22:38;5.20;99.90
21115;DHT22;10715;48.546;9.896;2023-12-29T05:25:04;5.10;99.90
21115;DHT22;10715;48.546;9.896;2023-12-29T05:27:30;5.10;99.90
21115;DHT22;10715;48.546;9.896;2023-12-29T05:29:57;5.10;99.90
21115;DHT22;10715;48.546;9.896;2023-12-29T05:32:22;5.00;99.90
21115;DHT22;10715;48.546;9.896;2023-12-29T05:34:48;5.00;99.90
21115;DHT22;10715;48.546;9.896;2023-12-29T05:37:14;4.90;99.90
21115;DHT22;10715;48.546;9.896;2023-12-29T05:39:42;4.90;99.90
21115;DHT22;10715;48.546;9.896;2023-12-29T05:42:08;4.90;99.90
21115;DHT22;10715;48.546;9.896;2023-12-29T05:44:36;4.80;99.90
21115;DHT22;10715;48.546;9.896;2023-12-29T05:47:02;4.70;99.90
21115;DHT22;10715;48.546;9.896;2023-12-29T05:49:28;4.70;99.90
21115;DHT22;10715;48.546;9.896;2023-12-29T05:51:54;4.70;99.90
21115;DHT22;10715;48.546;9.896;2023-12-29T05:54:20;4.60;99.90
21115;DHT22;10715;48.546;9.896;2023-12-29T05:56:45;4.50;99.90
21115;DHT22;10715;48.546;9.896;2023-12-29T05:59:11;4.50;99.90
21115;DHT22;10715;48.546;9.896;2023-12-29T06:01:37;4.50;99.90
21115;DHT22;10715;48.546;9.896;2023-12-29T06:04:03;4.40;99.90
21115;DHT22;10715;48.546;9.896;2023-12-29T06:06:29;4.40;99.90
21115;DHT22;10715;48.546;9.896;2023-12-29T06:08:54;4.30;99.90
21115;DHT22;10715;48.546;9.896;2023-12-29T06:11:20;4.30;99.90
21115;DHT22;10715;48.546;9.896;2023-12-29T06:13:46;4.30;99.90
21115;DHT22;10715;48.546;9.896;2023-12-29T06:16:19;4.20;99.90
21115;DHT22;10715;48.546;9.896;2023-12-29T06:18:46;4.20;99.90
21115;DHT22;10715;48.546;9.896;2023-12-29T06:21:11;4.20;99.90
21115;DHT22;10715;48.546;9.896;2023-12-29T06:23:37;4.20;99.90
21115;DHT22;10715;48.546;9.896;2023-12-29T06:26:03;4.20;99.90
21115;DHT22;10715;48.546;9.896;2023-12-29T06:28:29;4.10;99.90
21115;DHT22;10715;48.546;9.896;2023-12-29T06:30:54;4.10;99.90
21115;DHT22;10715;48.546;9.896;2023-12-29T06:33:20;4.10;99.90
21115;DHT22;10715;48.546;9.896;2023-12-29T06:35:47;4.10;99.90
21115;DHT22;10715;48.546;9.896;2023-12-29T06:38:13;4.00;99.90
21115;DHT22;10715;48.546;9.896;2023-12-29T06:40:40;4.00;99.90
21115;DHT22;10715;48.546;9.896;2023-12-29T06:43:05;4.00;99.90
21115;DHT22;10715;48.546;9.896;2023-12-29T06:45:31;4.00;99.90
21115;DHT22;10715;48.546;9.896;2023-12-29T06:47:57;4.00;99.90
21115;DHT22;10715;48.546;9.896;2023-12-29T06:50:23;4.00;99.90
21115;DHT22;10715;48.546;9.896;2023-12-29T06:52:49;4.00;99.90
21115;DHT22;10715;48.546;9.896;2023-12-29T06:55:14;4.00;99.90
21115;DHT22;10715;48.546;9.896;2023-12-29T06:57:40;4.00;99.90
21115;DHT22;10715;48.546;9.896;2023-12-29T07:00:06;4.10;99.90
21115;DHT22;10715;48.546;9.896;2023-12-29T07:02:32;4.10;99.90
21115;DHT22;10715;48.546;9.896;2023-12-29T07:04:58;4.20;99.90
21115;DHT22;10715;48.546;9.896;2023-12-29T07:07:24;4.20;99.90
21115;DHT22;10715;48.546;9.896;2023-12-29T07:09:50;4.30;99.90
21115;DHT22;10715;48.546;9.896;2023-12-29T07:12:18;4.30;99.90
21115;DHT22;10715;48.546;9.896;2023-12-29T07:14:44;4.30;99.90
21115;DHT22;10715;48.546;9.896;2023-12-29T07:17:09;4.40;99.90
21115;DHT22;10715;48.546;9.896;2023-12-29T07:19:35;4.40;99.90
21115;DHT22;10715;48.546;9.896;2023-12-29T07:22:04;4.40;99.90
21115;DHT22;10715;48.546;9.896;2023-12-29T07:24:32;4.40;99.90
21115;DHT22;10715;48.546;9.896;2023-12-29T07:26:58;4.40;99.90
21115;DHT22;10715;48.546;9.896;2023-12-29T07:29:24;4.40;99.90
21115;DHT22;10715;48.546;9.896;2023-12-29T07:31:50;4.40;99.90
21115;DHT22;10715;48.546;9.896;2023-12-29T07:34:16;4.40;99.90
21115;DHT22;10715;48.546;9.896;2023-12-29T07:36:41;4.40;99.90
21115;DHT22;10715;48.546;9.896;2023-12-29T07:39:08;4.40;99.90
21115;DHT22;10715;48.546;9.896;2023-12-29T07:41:39;4.50;99.90
21115;DHT22;10715;48.546;9.896;2023-12-29T07:44:06;4.50;99.90
21115;DHT22;10715;48.546;9.896;2023-12-29T07:46:32;4.50;99.90
21115;DHT22;10715;48.546;9.896;2023-12-29T07:48:57;4.60;99.90
21115;DHT22;10715;48.546;9.896;2023-12-29T07:51:23;4.60;99.90
21115;DHT22;10715;48.546;9.896;2023-12-29T07:53:49;4.60;99.90
21115;DHT22;10715;48.546;9.896;2023-12-29T07:56:15;4.60;99.90
21115;DHT22;10715;48.546;9.896;2023-12-29T07:58:41;4.60;99.90
21115;DHT22;10715;48.546;9.896;2023-12-29T08:01:06;4.60;99.90
21115;DHT22;10715;48.546;9.896;2023-12-29T08:03:32;4.60;99.90
21115;DHT22;10715;48.546;9.896;2023-12-29T08:05:58;4.60;99.90
21115;DHT22;10715;48.546;9.896;2023-12-29T08:08:23;4.60;99.90
21115;DHT22;10715;48.546;9.896;2023-12-29T08:10:49;4.60;99.90
21115;DHT22;10715;48.546;9.896;2023-12-29T08:13:14;4.60;99.90
21115;DHT22;10715;48.546;9.896;2023-12-29T08:15:41;4.70;99.90
21115;DHT22;10715;48.546;9.896;2023-12-29T08:18:08;4.70;99.90
21115;DHT22;10715;48.546;9.896;2023-12-29T08:20:34;4.80;99.90
21115;DHT22;10715;48.546;9.896;2023-12-29T08:23:01;4.80;99.90
21115;DHT22;10715;48.546;9.896;2023-12-29T08:25:28;4.90;99.90
21115;DHT22;10715;48.546;9.896;2023-12-29T08:27:55;4.90;99.90
21115;DHT22;10715;48.546;9.896;2023-12-29T08:30:21;5.00;99.90
21115;DHT22;10715;48.546;9.896;2023-12-29T08:32:47;5.00;99.90
21115;DHT22;10715;48.546;9.896;2023-12-29T08:35:13;5.10;99.90
21115;DHT22;10715;48.546;9.896;2023-12-29T08:37:38;5.10;99.90
21115;DHT22;10715;48.546;9.896;2023-12-29T08:40:05;5.20;99.90
21115;DHT22;10715;48.546;9.896;2023-12-29T08:42:32;5.20;99.90
21115;DHT22;10715;48.546;9.896;2023-12-29T08:44:59;5.30;99.90
21115;DHT22;10715;48.546;9.896;2023-12-29T08:47:25;5.30;99.90
21115;DHT22;10715;48.546;9.896;2023-12-29T08:49:51;5.40;99.90
21115;DHT22;10715;48.546;9.896;2023-12-29T08:52:16;5.40;99.90
21115;DHT22;10715;48.546;9.896;2023-12-29T08:54:42;5.40;99.90
21115;DHT22;10715;48.546;9.896;2023-12-29T08:57:09;5.40;99.90
21115;DHT22;10715;48.546;9.896;2023-12-29T08:59:35;5.50;99.90
21115;DHT22;10715;48.546;9.896;2023-12-29T09:02:01;5.50;99.90
21115;DHT22;10715;48.546;9.896;2023-12-29T09:04:27;5.60;99.90
21115;DHT22;10715;48.546;9.896;2023-12-29T09:06:53;5.60;99.90
21115;DHT22;10715;48.546;9.896;2023-12-29T09:09:19;5.70;99.90
21115;DHT22;10715;48.546;9.896;2023-12-29T09:11:45;5.70;99.90
21115;DHT22;10715;48.546;9.896;2023-12-29T09:14:11;5.80;99.90
21115;DHT22;10715;48.546;9.896;2023-12-29T09:16:37;5.80;99.90
21115;DHT22;10715;48.546;9.896;2023-12-29T09:19:03;5.90;99.90
21115;DHT22;10715;48.546;9.896;2023-12-29T09:21:28;6.00;99.90
21115;DHT22;10715;48.546;9.896;2023-12-29T09:23:54;6.10;99.90
21115;DHT22;10715;48.546;9.896;2023-12-29T09:26:20;6.20;99.90
21115;DHT22;10715;48.546;9.896;2023-12-29T09:28:47;6.30;99.90
21115;DHT22;10715;48.546;9.896;2023-12-29T09:31:13;6.40;99.90
21115;DHT22;10715;48.546;9.896;2023-12-29T09:33:38;6.50;99.90
21115;DHT22;10715;48.546;9.896;2023-12-29T09:36:05;6.60;99.90
21115;DHT22;10715;48.546;9.896;2023-12-29T09:38:30;6.70;99.90
21115;DHT22;10715;48.546;9.896;2023-12-29T09:40:59;6.70;99.90
21115;DHT22;10715;48.546;9.896;2023-12-29T09:43:31;6.80;99.90
21115;DHT22;10715;48.546;9.896;2023-12-29T09:45:58;6.90;99.90
21115;DHT22;10715;48.546;9.896;2023-12-29T09:48:26;7.00;99.90
21115;DHT22;10715;48.546;9.896;2023-12-29T09:50:54;7.10;99.90
21115;DHT22;10715;48.546;9.896;2023-12-29T09:53:20;7.10;99.90
21115;DHT22;10715;48.546;9.896;2023-12-29T09:55:48;7.10;99.90
21115;DHT22;10715;48.546;9.896;2023-12-29T09:58:15;7.20;99.90
21115;DHT22;10715;48.546;9.896;2023-12-29T10:00:44;7.30;99.90
21115;DHT22;10715;48.546;9.896;2023-12-29T10:03:12;7.30;99.90
21115;DHT22;10715;48.546;9.896;2023-12-29T10:05:37;7.30;99.90
21115;DHT22;10715;48.546;9.896;2023-12-29T10:08:05;7.30;99.90
21115;DHT22;10715;48.546;9.896;2023-12-29T10:10:33;7.40;99.90
21115;DHT22;10715;48.546;9.896;2023-12-29T10:13:00;7.40;99.90
21115;DHT22;10715;48.546;9.896;2023-12-29T10:16:18;7.50;99.90
21115;DHT22;10715;48.546;9.896;2023-12-29T10:23:45;7.60;99.90
21115;DHT22;10715;48.546;9.896;2023-12-29T10:26:13;7.60;99.90
21115;DHT22;10715;48.546;9.896;2023-12-29T10:28:40;7.70;99.90
21115;DHT22;10715;48.546;9.896;2023-12-29T10:31:06;7.70;99.90
21115;DHT22;10715;48.546;9.896;2023-12-29T10:33:35;7.80;99.90
21115;DHT22;10715;48.546;9.896;2023-12-29T10:36:02;7.80;99.90
21115;DHT22;10715;48.546;9.896;2023-12-29T10:38:29;7.90;99.90
21115;DHT22;10715;48.546;9.896;2023-12-29T10:41:14;7.90;99.90
21115;DHT22;10715;48.546;9.896;2023-12-29T10:43:41;7.90;99.90
21115;DHT22;10715;48.546;9.896;2023-12-29T10:46:09;7.90;99.90
21115;DHT22;10715;48.546;9.896;2023-12-29T10:48:35;8.00;99.90
21115;DHT22;10715;48.546;9.896;2023-12-29T10:51:02;8.00;99.90
21115;DHT22;10715;48.546;9.896;2023-12-29T10:53:35;8.00;99.90
21115;DHT22;10715;48.546;9.896;2023-12-29T10:56:01;8.00;99.90
21115;DHT22;10715;48.546;9.896;2023-12-29T10:58:28;8.00;99.90
21115;DHT22;10715;48.546;9.896;2023-12-29T11:00:58;8.10;99.90
21115;DHT22;10715;48.546;9.896;2023-12-29T11:03:25;8.10;99.90
21115;DHT22;10715;48.546;9.896;2023-12-29T11:05:59;8.00;99.90
21115;DHT22;10715;48.546;9.896;2023-12-29T11:08:27;8.10;99.90
21115;DHT22;10715;48.546;9.896;2023-12-29T11:10:54;8.10;99.90
21115;DHT22;10715;48.546;9.896;2023-12-29T11:13:20;8.10;99.90
21115;DHT22;10715;48.546;9.896;2023-12-29T11:15:46;8.10;99.90
21115;DHT22;10715;48.546;9.896;2023-12-29T11:18:17;8.10;99.90
21115;DHT22;10715;48.546;9.896;2023-12-29T11:20:44;8.20;99.90
21115;DHT22;10715;48.546;9.896;2023-12-29T11:23:10;8.20;99.90
21115;DHT22;10715;48.546;9.896;2023-12-29T11:25:40;8.20;99.90
21115;DHT22;10715;48.546;9.896;2023-12-29T11:28:10;8.20;99.90
21115;DHT22;10715;48.546;9.896;2023-12-29T11:30:36;8.20;99.90
21115;DHT22;10715;48.546;9.896;2023-12-29T11:33:12;8.20;99.90
21115;DHT22;10715;48.546;9.896;2023-12-29T11:35:44;8.20;99.90
21115;DHT22;10715;48.546;9.896;2023-12-29T11:41:27;8.20;99.90
21115;DHT22;10715;48.546;9.896;2023-12-29T11:43:57;8.20;99.90
21115;DHT22;10715;48.546;9.896;2023-12-29T11:46:52;8.20;99.90
21115;DHT22;10715;48.546;9.896;2023-12-29T11:49:18;8.20;99.90
21115;DHT22;10715;48.546;9.896;2023-12-29T11:51:47;8.20;99.90
21115;DHT22;10715;48.546;9.896;2023-12-29T11:54:25;8.30;99.90
21115;DHT22;10715;48.546;9.896;2023-12-29T11:56:52;8.30;99.90
21115;DHT22;10715;48.546;9.896;2023-12-29T11:59:22;8.30;99.90
21115;DHT22;10715;48.546;9.896;2023-12-29T12:01:58;8.30;99.90
21115;DHT22;10715;48.546;9.896;2023-12-29T12:04:44;8.30;99.90
21115;DHT22;10715;48.546;9.896;2023-12-29T12:12:47;8.30;99.90
21115;DHT22;10715;48.546;9.896;2023-12-29T12:17:59;8.30;99.90
21115;DHT22;10715;48.546;9.896;2023-12-29T12:20:25;8.30;99.90
21115;DHT22;10715;48.546;9.896;2023-12-29T12:25:28;8.30;99.90
21115;DHT22;10715;48.546;9.896;2023-12-29T12:27:54;8.30;99.90
21115;DHT22;10715;48.546;9.896;2023-12-29T12:30:20;8.30;99.90
21115;DHT22;10715;48.546;9.896;2023-12-29T12:32:46;8.30;99.90
21115;DHT22;10715;48.546;9.896;2023-12-29T12:35:16;8.30;99.90
21115;DHT22;10715;48.546;9.896;2023-12-29T12:37:42;8.30;99.90
21115;DHT22;10715;48.546;9.896;2023-12-29T12:40:08;8.40;99.90
21115;DHT22;10715;48.546;9.896;2023-12-29T12:42:38;8.30;99.90
21115;DHT22;10715;48.546;9.896;2023-12-29T12:45:18;8.30;99.90
21115;DHT22;10715;48.546;9.896;2023-12-29T12:47:51;8.30;99.90
21115;DHT22;10715;48.546;9.896;2023-12-29T12:50:17;8.40;99.90
21115;DHT22;10715;48.546;9.896;2023-12-29T12:52:43;8.40;99.90
21115;DHT22;10715;48.546;9.896;2023-12-29T12:55:09;8.40;99.90
21115;DHT22;10715;48.546;9.896;2023-12-29T12:57:36;8.40;99.90
21115;DHT22;10715;48.546;9.896;2023-12-29T13:00:03;8.40;99.90
21115;DHT22;10715;48.546;9.896;2023-12-29T13:02:30;8.40;99.90
21115;DHT22;10715;48.546;9.896;2023-12-29T13:04:57;8.40;99.90
21115;DHT22;10715;48.546;9.896;2023-12-29T13:07:23;8.40;99.90
21115;DHT22;10715;48.546;9.896;2023-12-29T13:09:50;8.40;99.90
21115;DHT22;10715;48.546;9.896;2023-12-29T13:12:18;8.40;99.90
21115;DHT22;10715;48.546;9.896;2023-12-29T13:14:45;8.30;99.90
21115;DHT22;10715;48.546;9.896;2023-12-29T13:17:14;8.30;99.90
21115;DHT22;10715;48.546;9.896;2023-12-29T13:19:41;8.30;99.90
21115;DHT22;10715;48.546;9.896;2023-12-29T13:22:08;8.30;99.90
21115;DHT22;10715;48.546;9.896;2023-12-29T13:27:09;8.30;99.90
21115;DHT22;10715;48.546;9.896;2023-12-29T13:29:38;8.30;99.90
21115;DHT22;10715;48.546;9.896;2023-12-29T13:32:14;8.30;99.90
21115;DHT22;10715;48.546;9.896;2023-12-29T13:35:05;8.30;99.90
21115;DHT22;10715;48.546;9.896;2023-12-29T13:40:34;8.30;99.90
21115;DHT22;10715;48.546;9.896;2023-12-29T13:43:02;8.30;99.90
21115;DHT22;10715;48.546;9.896;2023-12-29T13:45:29;8.20;99.90
21115;DHT22;10715;48.546;9.896;2023-12-29T13:47:56;8.20;99.90
21115;DHT22;10715;48.546;9.896;2023-12-29T13:50:22;8.20;99.90
21115;DHT22;10715;48.546;9.896;2023-12-29T13:52:49;8.20;99.90
21115;DHT22;10715;48.546;9.896;2023-12-29T13:55:24;8.20;99.90
21115;DHT22;10715;48.546;9.896;2023-12-29T13:57:51;8.20;99.90
21115;DHT22;10715;48.546;9.896;2023-12-29T14:00:21;8.20;99.90
21115;DHT22;10715;48.546;9.896;2023-12-29T14:06:00;8.20;99.90
21115;DHT22;10715;48.546;9.896;2023-12-29T14:08:32;8.20;99.90
21115;DHT22;10715;48.546;9.896;2023-12-29T14:11:09;8.20;99.90
21115;DHT22;10715;48.546;9.896;2023-12-29T14:13:39;8.20;99.90
21115;DHT22;10715;48.546;9.896;2023-12-29T14:16:06;8.20;99.90
21115;DHT22;10715;48.546;9.896;2023-12-29T14:24:12;8.20;99.90
21115;DHT22;10715;48.546;9.896;2023-12-29T14:26:39;8.20;99.90
21115;DHT22;10715;48.546;9.896;2023-12-29T14:29:08;8.20;99.90
21115;DHT22;10715;48.546;9.896;2023-12-29T14:31:44;8.20;99.90
21115;DHT22;10715;48.546;9.896;2023-12-29T14:34:11;8.20;99.90
21115;DHT22;10715;48.546;9.896;2023-12-29T14:36:38;8.20;99.90
21115;DHT22;10715;48.546;9.896;2023-12-29T14:39:04;8.20;99.90
21115;DHT22;10715;48.546;9.896;2023-12-29T14:41:30;8.10;99.90
21115;DHT22;10715;48.546;9.896;2023-12-29T14:43:56;8.10;99.90
21115;DHT22;10715;48.546;9.896;2023-12-29T14:46:22;8.10;99.90
21115;DHT22;10715;48.546;9.896;2023-12-29T14:48:48;8.10;99.90
21115;DHT22;10715;48.546;9.896;2023-12-29T14:51:14;8.10;99.90
21115;DHT22;10715;48.546;9.896;2023-12-29T14:53:43;8.10;99.90
21115;DHT22;10715;48.546;9.896;2023-12-29T14:56:10;8.10;99.90
21115;DHT22;10715;48.546;9.896;2023-12-29T14:58:36;8.00;99.90
21115;DHT22;10715;48.546;9.896;2023-12-29T15:01:02;8.00;99.90
21115;DHT22;10715;48.546;9.896;2023-12-29T15:03:29;8.00;99.90
21115;DHT22;10715;48.546;9.896;2023-12-29T15:05:55;8.00;99.90
21115;DHT22;10715;48.546;9.896;2023-12-29T15:08:21;8.00;99.90
21115;DHT22;10715;48.546;9.896;2023-12-29T15:10:47;7.90;99.90
21115;DHT22;10715;48.546;9.896;2023-12-29T15:13:13;7.90;99.90
21115;DHT22;10715;48.546;9.896;2023-12-29T15:15:39;7.90;99.90
21115;DHT22;10715;48.546;9.896;2023-12-29T15:18:05;7.80;99.90
21115;DHT22;10715;48.546;9.896;2023-12-29T15:20:31;7.80;99.90
21115;DHT22;10715;48.546;9.896;2023-12-29T15:22:56;7.80;99.90
21115;DHT22;10715;48.546;9.896;2023-12-29T15:25:24;7.70;99.90
21115;DHT22;10715;48.546;9.896;2023-12-29T15:27:51;7.70;99.90
21115;DHT22;10715;48.546;9.896;2023-12-29T15:30:18;7.60;99.90
21115;DHT22;10715;48.546;9.896;2023-12-29T15:32:44;7.60;99.90
21115;DHT22;10715;48.546;9.896;2023-12-29T15:35:10;7.60;99.90
21115;DHT22;10715;48.546;9.896;2023-12-29T15:37:35;7.60;99.90
21115;DHT22;10715;48.546;9.896;2023-12-29T15:40:02;7.50;99.90
21115;DHT22;10715;48.546;9.896;2023-12-29T15:42:38;7.50;99.90
21115;DHT22;10715;48.546;9.896;2023-12-29T15:45:04;7.40;99.90
21115;DHT22;10715;48.546;9.896;2023-12-29T15:47:30;7.40;99.90
21115;DHT22;10715;48.546;9.896;2023-12-29T15:49:55;7.40;99.90
21115;DHT22;10715;48.546;9.896;2023-12-29T15:52:21;7.30;99.90
21115;DHT22;10715;48.546;9.896;2023-12-29T15:54:47;7.30;99.90
21115;DHT22;10715;48.546;9.896;2023-12-29T15:57:12;7.20;99.90
21115;DHT22;10715;48.546;9.896;2023-12-29T15:59:38;7.20;99.90
21115;DHT22;10715;48.546;9.896;2023-12-29T16:02:04;7.20;99.90
21115;DHT22;10715;48.546;9.896;2023-12-29T16:04:29;7.20;99.90
21115;DHT22;10715;48.546;9.896;2023-12-29T16:06:56;7.20;99.90
21115;DHT22;10715;48.546;9.896;2023-12-29T16:09:22;7.10;99.90
21115;DHT22;10715;48.546;9.896;2023-12-29T16:11:48;7.10;99.90
21115;DHT22;10715;48.546;9.896;2023-12-29T16:14:20;7.10;99.90
21115;DHT22;10715;48.546;9.896;2023-12-29T16:16:50;7.10;99.90
21115;DHT22;10715;48.546;9.896;2023-12-29T16:19:16;7.10;99.90
21115;DHT22;10715;48.546;9.896;2023-12-29T16:21:42;7.00;99.90
21115;DHT22;10715;48.546;9.896;2023-12-29T16:24:11;7.00;99.90
21115;DHT22;10715;48.546;9.896;2023-12-29T16:26:41;7.00;99.90